createdAt,value
2023-06-06T00:00:27.653Z,52.94
2023-06-06T00:02:56.240Z,53.04
2023-06-06T00:05:28.530Z,53.05
2023-06-06T00:07:57.864Z,52.98
2023-06-06T00:10:26.225Z,52.92
2023-06-06T00:12:56.204Z,53.11
2023-06-06T00:15:27.400Z,53.20
2023-06-06T00:17:57.297Z,53.34
2023-06-06T00:20:25.846Z,53.45
2023-06-06T00:22:55.017Z,53.64
2023-06-06T00:25:23.499Z,53.75
2023-06-06T00:27:51.816Z,53.81
2023-06-06T00:30:20.348Z,53.84
2023-06-06T00:32:50.171Z,53.93
2023-06-06T00:35:18.527Z,54.04
2023-06-06T00:37:46.846Z,54.22
2023-06-06T00:40:15.679Z,54.38
2023-06-06T00:42:44.009Z,54.69
2023-06-06T00:45:12.571Z,54.73
2023-06-06T00:47:41.549Z,54.91
2023-06-06T00:50:14.214Z,54.90
2023-06-06T00:53:01.444Z,54.52
2023-06-06T00:55:30.178Z,55.01
2023-06-06T00:58:01.191Z,55.10
2023-06-06T01:00:33.658Z,55.13
2023-06-06T01:03:04.913Z,55.05
2023-06-06T01:05:34.857Z,55.13
2023-06-06T01:08:03.190Z,55.15
2023-06-06T01:10:31.702Z,55.16
2023-06-06T01:13:08.396Z,54.88
2023-06-06T01:15:43.113Z,55.39
2023-06-06T01:18:13.229Z,55.57
2023-06-06T01:20:44.363Z,55.42
2023-06-06T01:23:14.533Z,55.39
2023-06-06T01:25:47.940Z,55.49
2023-06-06T01:28:16.668Z,55.62
2023-06-06T01:30:47.065Z,55.53
2023-06-06T01:33:28.958Z,55.05
2023-06-06T01:36:06.823Z,55.04
2023-06-06T01:38:41.919Z,55.57
2023-06-06T01:41:14.227Z,55.92
2023-06-06T01:43:44.050Z,55.94
2023-06-06T01:46:13.694Z,56.14
2023-06-06T01:48:43.135Z,56.13
2023-06-06T01:51:12.404Z,56.24
2023-06-06T01:53:42.351Z,56.10
2023-06-06T01:56:15.000Z,56.03
2023-06-06T01:58:44.346Z,55.93
2023-06-06T02:01:13.011Z,56.02
2023-06-06T02:03:42.600Z,55.85
2023-06-06T02:06:11.042Z,55.78
2023-06-06T02:08:43.017Z,55.74
2023-06-06T02:11:11.657Z,55.97
2023-06-06T02:13:40.149Z,55.97
2023-06-06T02:16:09.003Z,56.05
2023-06-06T02:18:37.694Z,56.21
2023-06-06T02:21:06.154Z,56.34
2023-06-06T02:23:34.490Z,56.35
2023-06-06T02:26:05.043Z,56.35
2023-06-06T02:28:33.371Z,56.26
2023-06-06T02:31:03.594Z,56.26
2023-06-06T02:33:31.941Z,56.32
2023-06-06T02:36:01.756Z,56.52
2023-06-06T02:38:30.146Z,56.59
2023-06-06T02:40:58.738Z,56.62
2023-06-06T02:43:28.412Z,56.61
2023-06-06T02:45:56.834Z,56.71
2023-06-06T02:48:25.666Z,56.64
2023-06-06T02:50:54.084Z,56.63
2023-06-06T02:53:22.855Z,56.57
2023-06-06T02:55:51.301Z,56.54
2023-06-06T02:58:31.533Z,55.99
2023-06-06T03:01:02.137Z,56.68
2023-06-06T03:03:30.894Z,56.73
2023-06-06T03:06:00.118Z,56.75
2023-06-06T03:08:28.553Z,56.67
2023-06-06T03:10:57.904Z,56.64
2023-06-06T03:13:26.410Z,56.68
2023-06-06T03:15:57.914Z,56.55
2023-06-06T03:18:28.635Z,56.64
2023-06-06T03:21:02.794Z,56.68
2023-06-06T03:23:37.016Z,56.64
2023-06-06T03:26:06.342Z,56.70
2023-06-06T03:28:35.341Z,56.78
2023-06-06T03:31:07.381Z,56.82
2023-06-06T03:33:44.120Z,57.00
2023-06-06T03:36:12.612Z,57.02
2023-06-06T03:38:41.267Z,56.94
2023-06-06T03:41:10.449Z,56.93
2023-06-06T03:43:40.298Z,57.01
2023-06-06T03:46:10.088Z,56.95
2023-06-06T03:48:38.517Z,57.04
2023-06-06T03:51:07.056Z,57.05
2023-06-06T03:53:36.079Z,57.11
2023-06-06T03:56:06.057Z,57.14
2023-06-06T03:58:34.425Z,57.13
2023-06-06T04:01:02.952Z,57.22
2023-06-06T04:03:37.918Z,57.10
2023-06-06T04:06:09.155Z,57.09
2023-06-06T04:08:39.883Z,57.15
2023-06-06T04:11:08.439Z,57.34
2023-06-06T04:14:05.497Z,56.90
2023-06-06T04:16:33.583Z,57.45
2023-06-06T04:19:04.182Z,57.38
2023-06-06T04:21:33.492Z,57.41
2023-06-06T04:24:01.851Z,57.32
2023-06-06T04:26:32.850Z,57.38
2023-06-06T04:29:01.397Z,57.47
2023-06-06T04:31:31.253Z,57.44
2023-06-06T04:34:02.490Z,57.39
2023-06-06T04:36:34.475Z,57.39
2023-06-06T04:39:05.867Z,57.45
2023-06-06T04:44:05.900Z,57.42
2023-06-06T04:46:33.970Z,57.43
2023-06-06T04:49:02.544Z,57.38
2023-06-06T04:51:34.083Z,57.29
2023-06-06T04:54:03.764Z,57.37
2023-06-06T04:56:32.044Z,57.32
2023-06-06T04:59:07.861Z,57.30
2023-06-06T05:01:37.668Z,57.24
2023-06-06T05:04:06.569Z,57.21
2023-06-06T05:06:36.312Z,57.17
2023-06-06T05:09:05.928Z,57.19
2023-06-06T05:11:34.161Z,57.23
2023-06-06T05:14:02.369Z,57.00
2023-06-06T05:16:30.805Z,57.03
2023-06-06T05:18:58.938Z,56.87
2023-06-06T05:21:27.019Z,56.93
2023-06-06T05:23:56.552Z,56.73
2023-06-06T05:26:24.614Z,56.71
2023-06-06T05:28:52.652Z,56.45
2023-06-06T05:31:22.363Z,56.54
2023-06-06T05:33:50.508Z,56.52
2023-06-06T05:36:18.590Z,56.62
2023-06-06T05:38:46.782Z,56.34
2023-06-06T05:41:16.378Z,56.13
2023-06-06T05:43:47.148Z,56.02
2023-06-06T05:46:16.062Z,56.14
2023-06-06T05:48:44.184Z,55.80
2023-06-06T05:51:12.932Z,55.64
2023-06-06T05:53:45.986Z,55.21
2023-06-06T05:56:17.323Z,55.15
2023-06-06T05:58:48.055Z,55.06
2023-06-06T06:01:16.225Z,54.51
2023-06-06T06:03:45.986Z,54.19
2023-06-06T06:06:14.215Z,53.99
2023-06-06T06:08:43.604Z,53.87
2023-06-06T06:11:12.278Z,53.82
2023-06-06T06:13:41.972Z,53.50
2023-06-06T06:16:10.045Z,53.14
2023-06-06T06:18:38.421Z,53.13
2023-06-06T06:21:06.915Z,53.03
2023-06-06T06:23:35.066Z,53.13
2023-06-06T06:26:03.128Z,52.80
2023-06-06T06:28:32.293Z,52.68
2023-06-06T06:31:01.927Z,52.55
2023-06-06T06:33:30.701Z,52.48
2023-06-06T06:35:58.751Z,52.37
2023-06-06T06:38:27.341Z,52.20
2023-06-06T06:40:55.691Z,51.88
2023-06-06T06:43:23.830Z,51.79
2023-06-06T06:46:02.774Z,51.49
2023-06-06T06:48:30.865Z,51.62
2023-06-06T06:50:58.956Z,51.76
2023-06-06T06:53:31.624Z,51.19
2023-06-06T06:55:59.747Z,51.09
2023-06-06T06:58:35.099Z,50.89
2023-06-06T07:01:04.939Z,50.40
2023-06-06T07:03:35.443Z,50.50
2023-06-06T07:06:05.656Z,50.12
2023-06-06T07:08:33.927Z,50.08
2023-06-06T07:11:04.148Z,49.59
2023-06-06T07:13:32.717Z,48.86
2023-06-06T07:16:00.906Z,47.99
2023-06-06T07:18:30.503Z,47.51
2023-06-06T07:20:59.074Z,47.58
2023-06-06T07:23:27.237Z,45.76
2023-06-06T07:25:55.339Z,45.28
2023-06-06T07:28:24.475Z,43.61
2023-06-06T07:30:52.603Z,43.86
2023-06-06T07:33:20.729Z,42.58
2023-06-06T07:35:50.445Z,42.13
2023-06-06T07:38:18.518Z,41.28
2023-06-06T07:40:46.590Z,41.18
2023-06-06T07:43:14.605Z,41.52
2023-06-06T07:45:42.754Z,40.71
2023-06-06T07:48:10.944Z,40.48
2023-06-06T07:50:39.085Z,40.07
2023-06-06T07:53:08.534Z,39.57
2023-06-06T07:55:38.288Z,38.59
2023-06-06T07:58:11.488Z,38.89
2023-06-06T08:00:39.589Z,38.82
2023-06-06T08:03:09.016Z,38.54
2023-06-06T08:05:38.269Z,38.36
2023-06-06T08:08:07.321Z,37.99
2023-06-06T08:10:39.323Z,37.74
2023-06-06T08:13:07.884Z,37.81
2023-06-06T08:15:35.937Z,36.81
2023-06-06T08:18:04.198Z,37.05
2023-06-06T08:20:32.320Z,36.71
2023-06-06T08:23:00.826Z,36.40
2023-06-06T08:25:30.078Z,37.05
2023-06-06T08:28:00.571Z,36.80
2023-06-06T08:30:28.678Z,36.02
2023-06-06T08:32:56.859Z,36.14
2023-06-06T08:35:25.618Z,35.98
2023-06-06T08:37:55.104Z,36.77
2023-06-06T08:40:23.276Z,35.73
2023-06-06T08:42:53.455Z,35.28
2023-06-06T08:45:23.714Z,35.82
2023-06-06T08:47:52.325Z,35.03
2023-06-06T08:50:22.758Z,35.50
2023-06-06T08:52:51.307Z,35.85
2023-06-06T08:55:21.014Z,36.38
2023-06-06T08:57:49.910Z,36.67
2023-06-06T09:00:22.721Z,35.31
2023-06-06T09:02:55.123Z,36.06
2023-06-06T09:05:23.941Z,34.94
2023-06-06T09:07:54.180Z,34.86
2023-06-06T09:10:22.611Z,33.34
2023-06-06T09:12:50.933Z,32.55
2023-06-06T09:15:19.105Z,33.76
2023-06-06T09:17:48.795Z,33.15
2023-06-06T09:20:18.721Z,33.98
2023-06-06T09:22:49.085Z,34.13
2023-06-06T09:25:21.372Z,33.78
2023-06-06T09:27:54.171Z,33.32
2023-06-06T09:30:23.761Z,33.71
2023-06-06T09:32:58.357Z,35.05
2023-06-06T09:35:31.914Z,33.81
2023-06-06T09:38:06.192Z,32.89
2023-06-06T09:40:34.426Z,33.70
2023-06-06T09:43:02.571Z,33.30
2023-06-06T09:45:30.881Z,33.55
2023-06-06T09:48:01.585Z,32.48
2023-06-06T09:50:31.422Z,31.24
2023-06-06T09:52:59.639Z,31.64
2023-06-06T09:55:27.892Z,31.66
2023-06-06T09:57:59.382Z,31.62
2023-06-06T10:00:29.033Z,31.90
2023-06-06T10:02:59.473Z,31.29
2023-06-06T10:05:31.508Z,31.11
2023-06-06T10:08:00.056Z,30.44
2023-06-06T10:10:29.520Z,31.46
2023-06-06T10:12:59.776Z,32.84
2023-06-06T10:15:29.826Z,31.87
2023-06-06T10:17:59.506Z,31.46
2023-06-06T10:20:30.282Z,32.02
2023-06-06T10:22:58.889Z,30.90
2023-06-06T10:25:28.304Z,29.41
2023-06-06T10:28:02.898Z,30.80
2023-06-06T10:30:36.629Z,30.71
2023-06-06T10:33:16.085Z,29.46
2023-06-06T10:35:49.665Z,29.50
2023-06-06T10:38:17.972Z,29.69
2023-06-06T10:40:52.736Z,29.45
2023-06-06T10:43:46.723Z,28.84
2023-06-06T10:46:15.881Z,28.08
2023-06-06T10:48:48.921Z,28.81
2023-06-06T10:51:35.847Z,28.75
2023-06-06T10:54:21.615Z,28.23
2023-06-06T10:56:53.951Z,28.12
2023-06-06T10:59:28.584Z,27.70
2023-06-06T11:01:57.613Z,29.47
2023-06-06T11:04:27.467Z,28.58
2023-06-06T11:07:01.599Z,28.16
2023-06-06T11:09:32.208Z,28.61
2023-06-06T11:12:26.310Z,28.87
2023-06-06T11:14:58.209Z,29.78
2023-06-06T11:17:31.726Z,28.91
2023-06-06T11:20:02.087Z,28.93
2023-06-06T11:22:35.151Z,28.47
2023-06-06T11:25:06.921Z,28.33
2023-06-06T11:27:36.952Z,28.07
2023-06-06T11:30:05.666Z,28.31
2023-06-06T11:32:35.070Z,27.68
2023-06-06T11:35:09.136Z,27.34
2023-06-06T11:37:38.706Z,27.44
2023-06-06T11:40:10.666Z,27.22
2023-06-06T11:42:43.073Z,26.91
2023-06-06T11:45:15.307Z,27.11
2023-06-06T11:47:43.427Z,26.55
2023-06-06T11:50:11.911Z,25.68
2023-06-06T11:52:50.210Z,26.71
2023-06-06T11:55:18.867Z,27.34
2023-06-06T11:57:46.918Z,26.77
2023-06-06T12:00:18.514Z,25.97
2023-06-06T12:02:50.264Z,26.04
2023-06-06T12:05:21.172Z,26.04
2023-06-06T12:07:51.980Z,25.39
2023-06-06T12:10:25.540Z,25.17
2023-06-06T12:12:53.776Z,25.87
2023-06-06T12:15:22.420Z,25.75
2023-06-06T12:17:53.704Z,26.55
2023-06-06T12:20:25.855Z,25.91
2023-06-06T12:22:55.458Z,25.43
2023-06-06T12:25:28.339Z,26.40
2023-06-06T12:27:57.391Z,25.27
2023-06-06T12:30:33.086Z,25.19
2023-06-06T12:33:03.620Z,26.74
2023-06-06T12:35:32.387Z,26.21
2023-06-06T12:38:03.122Z,25.98
2023-06-06T12:40:35.267Z,25.87
2023-06-06T12:43:06.248Z,25.81
2023-06-06T12:45:37.889Z,25.89
2023-06-06T12:48:06.673Z,26.06
2023-06-06T12:50:34.896Z,26.03
2023-06-06T12:53:04.864Z,25.56
2023-06-06T12:55:33.177Z,25.99
2023-06-06T12:58:01.345Z,26.78
2023-06-06T13:00:29.462Z,25.77
2023-06-06T13:02:57.614Z,25.68
2023-06-06T13:05:25.814Z,25.64
2023-06-06T13:07:53.980Z,26.70
2023-06-06T13:10:23.419Z,26.46
2023-06-06T13:12:51.670Z,25.56
2023-06-06T13:15:19.755Z,25.64
2023-06-06T13:17:47.976Z,25.39
2023-06-06T13:20:17.095Z,25.92
2023-06-06T13:22:45.213Z,25.31
2023-06-06T13:25:13.261Z,26.27
2023-06-06T13:27:42.817Z,26.07
2023-06-06T13:30:11.653Z,26.17
2023-06-06T13:32:39.825Z,27.00
2023-06-06T13:35:08.479Z,27.32
2023-06-06T13:37:36.659Z,26.42
2023-06-06T13:40:05.722Z,26.30
2023-06-06T13:42:33.813Z,26.81
2023-06-06T13:45:03.853Z,26.10
2023-06-06T13:47:32.059Z,26.10
2023-06-06T13:50:00.220Z,25.94
2023-06-06T13:52:28.462Z,27.10
2023-06-06T13:54:56.554Z,27.19
2023-06-06T13:57:29.986Z,26.75
2023-06-06T13:59:58.408Z,26.87
2023-06-06T14:02:28.072Z,27.71
2023-06-06T14:04:56.343Z,26.37
2023-06-06T14:07:25.191Z,26.91
2023-06-06T14:09:53.406Z,26.94
2023-06-06T14:12:21.541Z,26.40
2023-06-06T14:14:49.615Z,26.72
2023-06-06T14:17:18.110Z,26.54
2023-06-06T14:19:52.162Z,27.58
2023-06-06T14:22:25.496Z,26.51
2023-06-06T14:24:55.641Z,26.42
2023-06-06T14:27:24.589Z,26.96
2023-06-06T14:29:56.102Z,27.91
2023-06-06T14:32:30.233Z,27.38
2023-06-06T14:35:01.373Z,27.42
2023-06-06T14:37:29.581Z,27.74
2023-06-06T14:39:58.096Z,26.72
2023-06-06T14:42:26.672Z,27.54
2023-06-06T14:44:56.708Z,26.68
2023-06-06T14:47:25.309Z,27.41
2023-06-06T14:49:53.495Z,26.41
2023-06-06T14:52:23.485Z,26.59
2023-06-06T14:54:51.730Z,26.77
2023-06-06T14:57:20.647Z,27.42
2023-06-06T14:59:48.765Z,26.85
2023-06-06T15:02:17.438Z,27.72
2023-06-06T15:04:45.856Z,27.32
2023-06-06T15:07:14.492Z,28.02
2023-06-06T15:09:44.138Z,27.07
2023-06-06T15:12:14.070Z,26.58
2023-06-06T15:14:43.151Z,26.97
2023-06-06T15:17:12.097Z,28.13
2023-06-06T15:19:42.542Z,27.12
2023-06-06T15:22:11.129Z,27.35
2023-06-06T15:24:39.488Z,28.02
2023-06-06T15:27:09.287Z,27.64
2023-06-06T15:29:39.339Z,27.75
2023-06-06T15:32:09.012Z,28.09
2023-06-06T15:34:38.940Z,28.43
2023-06-06T15:37:08.110Z,28.62
2023-06-06T15:39:36.606Z,29.78
2023-06-06T15:42:05.124Z,28.65
2023-06-06T15:44:34.624Z,28.90
2023-06-06T15:47:03.052Z,28.65
2023-06-06T15:49:31.318Z,29.93
2023-06-06T15:51:59.666Z,29.40
2023-06-06T15:54:27.956Z,29.35
2023-06-06T15:56:56.136Z,29.96
2023-06-06T15:59:24.988Z,29.65
2023-06-06T16:01:55.198Z,29.56
2023-06-06T16:04:26.550Z,30.55
2023-06-06T16:06:54.721Z,30.12
2023-06-06T16:09:22.831Z,30.72
2023-06-06T16:11:51.015Z,30.18
2023-06-06T16:14:19.089Z,30.96
2023-06-06T16:16:47.438Z,30.94
2023-06-06T16:19:17.028Z,31.28
2023-06-06T16:21:45.133Z,31.19
2023-06-06T16:24:13.509Z,31.53
2023-06-06T16:26:42.236Z,32.31
2023-06-06T16:29:10.276Z,31.82
2023-06-06T16:31:38.407Z,31.15
2023-06-06T16:34:06.575Z,30.82
2023-06-06T16:36:36.484Z,31.29
2023-06-06T16:39:04.776Z,31.53
2023-06-06T16:41:32.847Z,31.86
2023-06-06T16:44:00.894Z,32.77
2023-06-06T16:46:29.074Z,32.04
2023-06-06T16:48:57.170Z,32.46
2023-06-06T16:51:25.255Z,32.73
2023-06-06T16:53:55.792Z,33.60
2023-06-06T16:56:24.582Z,32.60
2023-06-06T16:58:52.649Z,32.76
2023-06-06T17:01:20.802Z,32.57
2023-06-06T17:03:48.956Z,33.02
2023-06-06T17:06:17.631Z,33.77
2023-06-06T17:08:45.880Z,32.55
2023-06-06T17:11:16.127Z,32.80
2023-06-06T17:13:44.300Z,32.96
2023-06-06T17:16:12.455Z,33.33
2023-06-06T17:18:40.672Z,33.51
2023-06-06T17:21:10.533Z,33.25
2023-06-06T17:23:38.846Z,33.44
2023-06-06T17:26:07.006Z,33.66
2023-06-06T17:28:36.504Z,34.41
2023-06-06T17:31:04.650Z,34.38
2023-06-06T17:33:33.130Z,34.99
2023-06-06T17:36:01.389Z,35.18
2023-06-06T17:38:29.423Z,35.24
2023-06-06T17:40:57.532Z,35.10
2023-06-06T17:43:25.584Z,35.69
2023-06-06T17:45:55.167Z,35.47
2023-06-06T17:48:23.317Z,35.53
2023-06-06T17:50:51.383Z,36.08
2023-06-06T17:53:20.073Z,36.37
2023-06-06T17:55:48.276Z,36.69
2023-06-06T17:58:16.334Z,36.77
2023-06-06T18:00:44.439Z,37.20
2023-06-06T18:03:14.284Z,37.46
2023-06-06T18:05:43.459Z,37.54
2023-06-06T18:08:12.260Z,37.78
2023-06-06T18:10:40.312Z,38.11
2023-06-06T18:13:08.372Z,38.18
2023-06-06T18:15:36.686Z,38.20
2023-06-06T18:18:05.469Z,38.60
2023-06-06T18:20:34.956Z,38.75
2023-06-06T18:23:02.982Z,39.10
2023-06-06T18:25:33.633Z,39.20
2023-06-06T18:28:01.705Z,39.63
2023-06-06T18:30:29.813Z,39.90
2023-06-06T18:32:57.955Z,39.90
2023-06-06T18:35:26.180Z,40.36
2023-06-06T18:37:58.442Z,40.58
2023-06-06T18:40:26.930Z,40.69
2023-06-06T18:42:55.063Z,40.89
2023-06-06T18:45:23.425Z,41.58
2023-06-06T18:47:53.469Z,41.73
2023-06-06T18:50:21.967Z,41.89
2023-06-06T18:52:50.320Z,42.08
2023-06-06T18:55:20.055Z,42.23
2023-06-06T18:57:48.546Z,42.41
2023-06-06T19:00:17.556Z,42.56
2023-06-06T19:02:46.011Z,42.62
2023-06-06T19:05:15.501Z,42.75
2023-06-06T19:07:44.039Z,42.97
2023-06-06T19:10:12.727Z,43.16
2023-06-06T19:12:49.109Z,43.24
2023-06-06T19:15:18.625Z,43.62
2023-06-06T19:17:47.791Z,43.76
2023-06-06T19:20:18.897Z,43.82
2023-06-06T19:22:47.681Z,44.07
2023-06-06T19:25:16.210Z,44.16
2023-06-06T19:27:46.943Z,44.29
2023-06-06T19:30:16.864Z,44.60
2023-06-06T19:32:45.970Z,44.62
2023-06-06T19:35:14.393Z,44.73
2023-06-06T19:37:42.988Z,44.85
2023-06-06T19:40:21.958Z,44.54
2023-06-06T19:42:52.869Z,45.19
2023-06-06T19:45:21.578Z,45.51
2023-06-06T19:47:50.875Z,45.73
2023-06-06T19:50:20.655Z,45.93
2023-06-06T19:52:49.383Z,45.97
2023-06-06T19:55:18.287Z,46.06
2023-06-06T19:57:46.816Z,46.25
2023-06-06T20:00:18.121Z,46.28
2023-06-06T20:02:47.449Z,46.44
2023-06-06T20:05:16.060Z,46.57
2023-06-06T20:07:45.397Z,46.74
2023-06-06T20:10:13.991Z,46.78
2023-06-06T20:12:42.954Z,46.90
2023-06-06T20:15:12.029Z,47.09
2023-06-06T20:17:41.820Z,47.09
2023-06-06T20:20:12.068Z,46.95
2023-06-06T20:22:41.873Z,47.23
2023-06-06T20:25:11.166Z,47.28
2023-06-06T20:27:39.499Z,47.22
2023-06-06T20:30:09.122Z,47.27
2023-06-06T20:32:37.605Z,47.31
2023-06-06T20:35:08.905Z,47.58
2023-06-06T20:37:38.773Z,47.84
2023-06-06T20:40:28.790Z,48.12
2023-06-06T20:42:57.230Z,48.24
2023-06-06T20:45:26.490Z,48.40
2023-06-06T20:47:55.246Z,48.47
2023-06-06T20:50:25.100Z,48.44
2023-06-06T20:52:53.515Z,48.50
2023-06-06T20:55:22.036Z,48.68
2023-06-06T20:57:54.877Z,48.75
2023-06-06T21:00:28.576Z,48.82
2023-06-06T21:03:09.772Z,49.05
2023-06-06T21:05:44.015Z,49.05
2023-06-06T21:08:45.623Z,48.91
2023-06-06T21:11:42.648Z,49.05
2023-06-06T21:14:18.352Z,49.14
2023-06-06T21:17:06.704Z,49.27
2023-06-06T21:19:56.884Z,48.90
2023-06-06T21:22:42.807Z,49.50
2023-06-06T21:25:40.353Z,49.71
2023-06-06T21:28:24.247Z,50.09
2023-06-06T21:30:59.549Z,50.25
2023-06-06T21:33:27.933Z,50.23
2023-06-06T21:35:56.306Z,50.34
2023-06-06T21:38:26.024Z,50.30
2023-06-06T21:40:54.423Z,50.34
2023-06-06T21:43:22.700Z,50.42
2023-06-06T21:45:51.300Z,50.52
2023-06-06T21:48:19.630Z,50.50
2023-06-06T21:50:47.957Z,50.50
2023-06-06T21:53:16.362Z,50.68
2023-06-06T21:55:46.473Z,50.74
2023-06-06T21:58:14.930Z,50.89
2023-06-06T22:00:43.522Z,50.92
2023-06-06T22:03:12.013Z,50.98
2023-06-06T22:05:40.757Z,50.98
2023-06-06T22:08:09.049Z,51.09
2023-06-06T22:10:37.417Z,51.33
2023-06-06T22:13:07.207Z,51.49
2023-06-06T22:15:35.989Z,51.51
2023-06-06T22:18:04.359Z,51.39
2023-06-06T22:20:32.773Z,51.42
2023-06-06T22:23:01.124Z,51.38
2023-06-06T22:25:29.962Z,51.51
2023-06-06T22:27:58.447Z,51.47
2023-06-06T22:30:28.175Z,51.53
2023-06-06T22:32:56.529Z,51.62
2023-06-06T22:35:24.968Z,51.63
2023-06-06T22:37:56.535Z,51.62
2023-06-06T22:40:27.214Z,51.61
2023-06-06T22:42:56.915Z,51.65
2023-06-06T22:45:25.346Z,51.72
2023-06-06T22:47:55.170Z,51.82
2023-06-06T22:50:23.592Z,51.85
2023-06-06T22:52:52.332Z,51.88
2023-06-06T22:55:20.708Z,51.96
2023-06-06T22:57:49.064Z,52.07
2023-06-06T23:00:18.370Z,52.06
2023-06-06T23:02:46.935Z,52.11
2023-06-06T23:05:16.818Z,52.04
2023-06-06T23:07:45.252Z,52.11
2023-06-06T23:10:13.611Z,52.23
2023-06-06T23:12:42.075Z,52.24
2023-06-06T23:15:12.281Z,52.22
2023-06-06T23:17:40.969Z,52.46
2023-06-06T23:20:12.889Z,52.46
2023-06-06T23:22:44.334Z,52.37
2023-06-06T23:25:15.741Z,52.53
2023-06-06T23:27:44.226Z,52.87
2023-06-06T23:30:14.567Z,52.95
2023-06-06T23:32:47.045Z,52.95
2023-06-06T23:35:15.755Z,53.04
2023-06-06T23:37:45.721Z,53.17
2023-06-06T23:40:14.221Z,53.07
2023-06-06T23:42:45.629Z,52.84
2023-06-06T23:45:13.961Z,52.95
2023-06-06T23:47:42.343Z,53.14
2023-06-06T23:50:11.783Z,53.14
2023-06-06T23:52:40.126Z,53.31
2023-06-06T23:55:10.211Z,53.48
2023-06-06T23:57:38.686Z,53.66
